Time;durP1;ratioP1;P1;durP2;ratioP2;P2;SDS_P1;SDS_P2;PMS_P1;PMS_P2;Temp;Humidity;BMP_temperature;BMP_pressure;BME280_temperature;BME280_humidity;BME280_pressure;Samples;Min_cycle;Max_cycle;Signal;HPM_P1;HPM_P2
2022/04/07 00:00:53;;;;;;;9.55;5.15;;;10.20;99.90;;;;;;5014406;28;20073;-81
2022/04/07 00:03:18;;;;;;;9.23;4.53;;;10.10;99.90;;;;;;5030854;28;20048;-81
2022/04/07 00:05:44;;;;;;;8.95;5.07;;;10.10;99.90;;;;;;5030816;28;20041;-81
2022/04/07 00:08:10;;;;;;;9.85;5.57;;;10.00;99.90;;;;;;5030796;28;20037;-81
2022/04/07 00:10:37;;;;;;;9.48;5.35;;;10.00;99.90;;;;;;5030733;28;20051;-81
2022/04/07 00:13:03;;;;;;;9.65;5.90;;;9.90;99.90;;;;;;5030774;28;20056;-81
2022/04/07 00:15:29;;;;;;;10.82;5.93;;;9.90;99.90;;;;;;5014341;28;20092;-81
2022/04/07 00:17:55;;;;;;;10.93;6.13;;;9.90;99.90;;;;;;5030797;28;20040;-80
2022/04/07 00:20:21;;;;;;;10.90;6.60;;;9.90;99.90;;;;;;5013830;28;20037;-80
2022/04/07 00:22:48;;;;;;;9.50;6.30;;;9.80;99.90;;;;;;5014243;28;20095;-81
2022/04/07 00:25:14;;;;;;;10.70;6.70;;;9.80;99.90;;;;;;5030414;28;20510;-80
2022/04/07 00:27:39;;;;;;;12.15;6.63;;;9.80;99.90;;;;;;5030279;28;20037;-81
2022/04/07 00:30:06;;;;;;;10.85;6.30;;;9.80;99.90;;;;;;5013884;28;20081;-81
2022/04/07 00:32:31;;;;;;;9.25;5.97;;;9.80;99.90;;;;;;5013860;28;20041;-81
2022/04/07 00:34:57;;;;;;;10.75;6.35;;;9.90;99.90;;;;;;5014072;28;20052;-81
2022/04/07 00:37:24;;;;;;;9.88;6.22;;;9.90;99.90;;;;;;5030500;28;20037;-81
2022/04/07 00:39:52;;;;;;;10.25;7.00;;;9.90;99.90;;;;;;5013736;28;20037;-81
2022/04/07 00:42:18;;;;;;;10.68;6.93;;;10.00;99.90;;;;;;5013873;28;20086;-81
2022/04/07 00:44:44;;;;;;;11.90;5.80;;;9.90;99.90;;;;;;5014263;28;20398;-81
2022/04/07 00:47:11;;;;;;;10.55;6.28;;;9.90;99.90;;;;;;5013911;28;20120;-81
2022/04/07 00:49:37;;;;;;;11.75;7.10;;;9.90;99.90;;;;;;5030381;28;20107;-81
2022/04/07 00:52:03;;;;;;;10.73;6.35;;;9.90;99.90;;;;;;5013542;28;20049;-81
2022/04/07 00:54:30;;;;;;;10.05;5.93;;;9.90;99.90;;;;;;5014056;28;20115;-81
2022/04/07 00:56:57;;;;;;;9.85;5.78;;;9.90;99.90;;;;;;5030516;28;20044;-81
2022/04/07 00:59:23;;;;;;;10.20;5.53;;;9.90;99.90;;;;;;5014066;28;20041;-81
2022/04/07 01:01:49;;;;;;;9.88;5.60;;;9.90;99.90;;;;;;5013752;28;20124;-81
2022/04/07 01:04:15;;;;;;;9.57;5.50;;;9.90;99.90;;;;;;5030072;28;20079;-81
2022/04/07 01:06:47;;;;;;;10.23;5.32;;;9.90;99.90;;;;;;5030332;28;20041;-82
2022/04/07 01:09:14;;;;;;;10.32;5.45;;;9.90;99.90;;;;;;5013830;28;20124;-81
2022/04/07 01:11:41;;;;;;;9.73;6.07;;;9.90;99.90;;;;;;5030005;28;20041;-81
2022/04/07 01:14:07;;;;;;;10.77;6.43;;;9.80;99.90;;;;;;5030321;28;20091;-81
2022/04/07 01:16:34;;;;;;;11.00;6.13;;;9.80;99.90;;;;;;5029898;28;20042;-81
2022/04/07 01:19:00;;;;;;;10.13;4.88;;;9.80;99.90;;;;;;5030510;28;20045;-81
2022/04/07 01:21:32;;;;;;;9.27;5.72;;;9.80;99.90;;;;;;5013224;28;20124;-81
2022/04/07 01:24:06;;;;;;;10.10;5.10;;;9.80;99.90;;;;;;5030139;28;20041;-81
2022/04/07 01:26:39;;;;;;;9.75;5.50;;;9.80;99.90;;;;;;5030072;28;20038;-81
2022/04/07 01:29:10;;;;;;;9.82;5.47;;;9.80;99.90;;;;;;5030059;28;20046;-81
2022/04/07 01:31:37;;;;;;;10.00;5.20;;;9.80;99.90;;;;;;5029814;28;20041;-81
2022/04/07 01:34:05;;;;;;;9.95;5.78;;;9.80;99.90;;;;;;5013557;28;20522;-81
2022/04/07 01:36:38;;;;;;;11.57;5.22;;;9.80;99.90;;;;;;5029895;28;20129;-82
2022/04/07 01:39:05;;;;;;;9.48;4.88;;;9.90;99.90;;;;;;5033805;28;20048;-81
2022/04/07 01:41:31;;;;;;;9.60;4.90;;;9.90;99.90;;;;;;5016651;28;20399;-81
2022/04/07 01:43:59;;;;;;;10.75;4.55;;;9.90;99.90;;;;;;5033532;28;20469;-81
2022/04/07 01:46:26;;;;;;;9.65;4.53;;;9.80;99.90;;;;;;5017341;28;20384;-81
2022/04/07 01:48:53;;;;;;;9.63;4.60;;;9.80;99.90;;;;;;5017351;28;20479;-82
2022/04/07 01:51:19;;;;;;;10.57;4.90;;;9.80;99.90;;;;;;5016809;28;20042;-82
2022/04/07 01:53:47;;;;;;;11.10;4.63;;;9.70;99.90;;;;;;5033347;28;20111;-82
2022/04/07 01:56:13;;;;;;;8.60;3.83;;;9.70;99.90;;;;;;5033305;28;20041;-82
2022/04/07 01:58:39;;;;;;;9.48;4.32;;;9.70;99.90;;;;;;5033431;28;20033;-81
2022/04/07 02:01:05;;;;;;;10.90;4.50;;;9.80;99.90;;;;;;5034218;28;20507;-81
2022/04/07 02:03:31;;;;;;;11.88;4.05;;;9.80;99.90;;;;;;5033548;28;20128;-81
2022/04/07 02:06:13;;;;;;;10.82;3.72;;;9.70;99.90;;;;;;5033215;28;20103;-81
2022/04/07 02:08:39;;;;;;;8.18;3.28;;;9.70;99.90;;;;;;5016627;28;20116;-81
2022/04/07 02:11:05;;;;;;;8.77;3.78;;;9.70;99.90;;;;;;5016501;28;20144;-81
2022/04/07 02:13:34;;;;;;;11.05;4.18;;;9.70;99.90;;;;;;5016762;28;20526;-81
2022/04/07 02:16:01;;;;;;;8.07;3.00;;;9.70;99.90;;;;;;5033108;28;20408;-81
2022/04/07 02:18:27;;;;;;;11.43;4.15;;;9.70;99.90;;;;;;5033014;28;20037;-81
2022/04/07 02:20:52;;;;;;;12.07;4.25;;;9.70;99.90;;;;;;5032521;28;20073;-81
2022/04/07 02:23:18;;;;;;;9.88;4.18;;;9.70;99.90;;;;;;5016256;28;20081;-81
2022/04/07 02:25:44;;;;;;;11.40;3.75;;;9.70;99.90;;;;;;5032899;28;20037;-81
2022/04/07 02:28:09;;;;;;;12.40;4.35;;;9.60;99.90;;;;;;5034260;28;20091;-81
2022/04/07 02:30:35;;;;;;;10.82;4.82;;;9.60;99.90;;;;;;5032449;28;20099;-81
2022/04/07 02:33:01;;;;;;;9.20;4.03;;;9.70;99.90;;;;;;5032599;28;20095;-81
2022/04/07 02:35:26;;;;;;;11.25;4.47;;;9.70;99.90;;;;;;5032611;28;20046;-81
2022/04/07 02:37:52;;;;;;;11.25;3.72;;;9.60;99.90;;;;;;5032969;28;20077;-81
2022/04/07 02:40:17;;;;;;;11.40;4.07;;;9.60;99.90;;;;;;5032178;28;20124;-81
2022/04/07 02:42:43;;;;;;;13.30;4.53;;;9.70;99.90;;;;;;5031878;28;20041;-81
2022/04/07 02:45:09;;;;;;;12.07;4.10;;;9.60;99.90;;;;;;5032415;28;20071;-81
2022/04/07 02:47:38;;;;;;;12.52;3.72;;;9.70;99.90;;;;;;5032743;28;20095;-81
2022/04/07 02:50:04;;;;;;;10.02;3.75;;;9.60;99.90;;;;;;5031365;28;20037;-81
2022/04/07 02:52:30;;;;;;;11.93;3.85;;;9.70;99.90;;;;;;5032107;28;20128;-82
2022/04/07 02:54:55;;;;;;;12.20;4.72;;;9.70;99.90;;;;;;5015974;28;20128;-81
2022/04/07 02:57:25;;;;;;;11.98;4.45;;;9.70;99.90;;;;;;5015862;28;20514;-81
2022/04/07 02:59:51;;;;;;;10.73;4.03;;;9.70;99.90;;;;;;5032078;28;20395;-81
2022/04/07 03:02:17;;;;;;;11.70;3.78;;;9.70;99.90;;;;;;5032023;28;20538;-81
2022/04/07 03:04:43;;;;;;;11.15;4.38;;;9.70;99.90;;;;;;5031883;28;20049;-81
2022/04/07 03:07:08;;;;;;;13.85;3.90;;;9.60;99.90;;;;;;5031996;28;20053;-81
2022/04/07 03:09:34;;;;;;;11.50;4.03;;;9.60;99.90;;;;;;5015163;28;20041;-81
2022/04/07 03:11:59;;;;;;;10.23;4.25;;;9.60;99.90;;;;;;5031973;28;20042;-81
2022/04/07 03:14:27;;;;;;;11.52;4.25;;;9.50;99.90;;;;;;5031616;28;20128;-81
2022/04/07 03:16:53;;;;;;;10.63;4.55;;;9.50;99.90;;;;;;5031879;28;20037;-81
2022/04/07 03:19:19;;;;;;;10.25;4.57;;;9.50;99.90;;;;;;5031642;28;20072;-81
2022/04/07 03:21:44;;;;;;;18.52;4.97;;;9.50;99.90;;;;;;5031407;28;20068;-81
2022/04/07 03:24:10;;;;;;;11.90;4.50;;;9.50;99.90;;;;;;5015263;28;20041;-81
2022/04/07 03:26:38;;;;;;;13.95;4.80;;;9.40;99.90;;;;;;5031705;28;20100;-81
2022/04/07 03:29:03;;;;;;;12.90;4.20;;;9.40;99.90;;;;;;5031612;28;20403;-81
2022/04/07 03:31:29;;;;;;;12.10;4.10;;;9.40;99.90;;;;;;5031189;28;20498;-81
2022/04/07 03:33:55;;;;;;;11.20;4.00;;;9.40;99.90;;;;;;5015144;28;20402;-81
2022/04/07 03:36:20;;;;;;;11.27;3.72;;;9.30;99.90;;;;;;5031365;28;20503;-81
2022/04/07 03:38:48;;;;;;;12.13;4.55;;;9.40;99.90;;;;;;5031343;28;20033;-81
2022/04/07 03:41:15;;;;;;;13.70;4.63;;;9.40;99.90;;;;;;5014557;28;20092;-81
2022/04/07 03:43:42;;;;;;;11.80;3.92;;;9.30;99.90;;;;;;5031627;28;20514;-81
2022/04/07 03:46:08;;;;;;;11.82;3.85;;;9.30;99.90;;;;;;5031369;28;20045;-81
2022/04/07 03:48:34;;;;;;;15.98;4.03;;;9.30;99.90;;;;;;5014529;28;20052;-81
2022/04/07 03:50:59;;;;;;;10.75;3.38;;;9.30;99.90;;;;;;5030941;28;20041;-81
2022/04/07 03:53:25;;;;;;;15.20;3.95;;;9.30;99.90;;;;;;5030927;28;20042;-81
2022/04/07 03:55:51;;;;;;;9.82;3.20;;;9.30;99.90;;;;;;5031198;28;20030;-81
2022/04/07 03:58:16;;;;;;;12.15;3.08;;;9.30;99.90;;;;;;5030960;28;20564;-81
2022/04/07 04:00:42;;;;;;;15.02;3.60;;;9.30;99.90;;;;;;5029980;28;20041;-81
2022/04/07 04:03:08;;;;;;;13.73;3.22;;;9.30;99.90;;;;;;5030754;28;20083;-81
2022/04/07 04:05:33;;;;;;;13.20;3.88;;;9.30;99.90;;;;;;5031057;28;20090;-81
2022/04/07 04:07:59;;;;;;;12.82;3.13;;;9.40;99.90;;;;;;5030968;28;20045;-81
2022/04/07 04:10:25;;;;;;;12.63;3.40;;;9.40;99.90;;;;;;5030738;28;20042;-81
2022/04/07 04:12:51;;;;;;;13.35;3.53;;;9.40;99.90;;;;;;5030680;28;20121;-81
2022/04/07 04:15:17;;;;;;;11.10;3.30;;;9.40;99.90;;;;;;5030878;28;20057;-81
2022/04/07 04:17:42;;;;;;;13.38;3.45;;;9.40;99.90;;;;;;5030554;28;20568;-81
2022/04/07 04:20:08;;;;;;;13.88;4.05;;;9.40;99.90;;;;;;5014013;28;20041;-81
2022/04/07 04:22:34;;;;;;;15.30;3.90;;;9.40;99.90;;;;;;5030503;28;20037;-81
2022/04/07 04:25:00;;;;;;;17.02;4.05;;;9.40;99.90;;;;;;5030901;28;20041;-81
2022/04/07 04:27:25;;;;;;;14.27;3.80;;;9.40;99.90;;;;;;5030847;28;20526;-81
2022/04/07 04:29:51;;;;;;;13.98;3.95;;;9.40;99.90;;;;;;5014069;28;20521;-81
2022/04/07 04:32:16;;;;;;;15.88;4.07;;;9.40;99.90;;;;;;5030357;28;20502;-81
2022/04/07 04:34:42;;;;;;;16.73;4.60;;;9.40;99.90;;;;;;5030486;28;20114;-81
2022/04/07 04:37:07;;;;;;;14.05;3.63;;;9.40;99.90;;;;;;5014183;28;20045;-81
2022/04/07 04:39:33;;;;;;;14.85;3.85;;;9.40;99.90;;;;;;5013853;28;20041;-81
2022/04/07 04:41:58;;;;;;;15.15;3.83;;;9.40;99.90;;;;;;5030353;28;20041;-81
2022/04/07 04:44:24;;;;;;;14.52;4.15;;;9.40;99.90;;;;;;5014013;28;20044;-81
2022/04/07 04:46:49;;;;;;;18.38;4.30;;;9.40;99.90;;;;;;5030355;28;20037;-81
2022/04/07 04:49:15;;;;;;;18.23;4.57;;;9.40;99.90;;;;;;5029585;28;20096;-81
2022/04/07 04:51:40;;;;;;;19.00;4.90;;;9.40;99.90;;;;;;5013486;28;20041;-82
2022/04/07 04:54:06;;;;;;;17.58;4.90;;;9.30;99.90;;;;;;5030316;28;20041;-81
2022/04/07 04:56:32;;;;;;;14.48;4.15;;;9.20;99.90;;;;;;5030140;28;20061;-81
2022/04/07 04:58:57;;;;;;;13.65;4.28;;;9.20;99.90;;;;;;5013845;28;20045;-81
2022/04/07 05:01:23;;;;;;;16.33;5.20;;;9.20;99.90;;;;;;5029798;28;20041;-81
2022/04/07 05:03:49;;;;;;;16.70;4.75;;;9.20;99.90;;;;;;5030338;28;20071;-82
2022/04/07 05:06:15;;;;;;;17.55;4.88;;;9.20;99.90;;;;;;5030249;28;20559;-82
2022/04/07 05:08:41;;;;;;;16.88;4.65;;;9.30;99.90;;;;;;5030480;28;20403;-82
2022/04/07 05:11:07;;;;;;;17.23;5.28;;;9.30;99.90;;;;;;5029798;28;20079;-82
2022/04/07 05:13:32;;;;;;;19.75;4.72;;;9.30;99.90;;;;;;5033435;28;20094;-81
2022/04/07 05:15:58;;;;;;;15.30;4.38;;;9.30;99.90;;;;;;5034180;28;20326;-81
2022/04/07 05:18:23;;;;;;;15.25;4.43;;;9.30;99.90;;;;;;5017766;28;20044;-81
2022/04/07 05:20:49;;;;;;;15.70;3.88;;;9.30;99.90;;;;;;5033630;28;20042;-81
2022/04/07 05:23:15;;;;;;;16.13;4.18;;;9.30;99.90;;;;;;5034787;28;20039;-80
2022/04/07 05:25:40;;;;;;;17.67;4.55;;;9.30;99.90;;;;;;5037764;28;20033;-80
2022/04/07 05:28:06;;;;;;;10.73;4.00;;;9.30;99.90;;;;;;5034578;28;20041;-80
2022/04/07 05:30:32;;;;;;;12.60;4.25;;;9.20;99.90;;;;;;5033415;28;20048;-80
2022/04/07 05:32:58;;;;;;;13.90;3.85;;;9.20;99.90;;;;;;5035135;28;20041;-81
2022/04/07 05:35:28;;;;;;;13.88;3.92;;;9.30;99.90;;;;;;5034222;28;20066;-80
2022/04/07 05:38:04;;;;;;;12.52;3.55;;;9.30;99.90;;;;;;5017791;28;20376;-80
2022/04/07 05:40:30;;;;;;;14.93;3.75;;;9.30;99.90;;;;;;5033775;28;20413;-80
2022/04/07 05:42:56;;;;;;;13.30;3.63;;;9.30;99.90;;;;;;5033870;28;20037;-80
2022/04/07 05:45:22;;;;;;;13.00;3.65;;;9.30;99.90;;;;;;5033755;28;20088;-81
2022/04/07 05:47:48;;;;;;;11.63;3.58;;;9.30;99.90;;;;;;5033819;28;20041;-81
2022/04/07 05:50:14;;;;;;;14.30;3.50;;;9.30;99.90;;;;;;5033609;28;20049;-81
2022/04/07 05:52:40;;;;;;;14.48;3.08;;;9.30;99.90;;;;;;5033205;28;20518;-81
2022/04/07 05:55:06;;;;;;;13.15;4.10;;;9.30;99.90;;;;;;5016928;28;20103;-81
2022/04/07 05:57:32;;;;;;;13.45;3.45;;;9.20;99.90;;;;;;5033398;28;20091;-81
2022/04/07 06:00:16;;;;;;;10.00;3.30;;;9.20;99.90;;;;;;5032578;28;20562;-81
2022/04/07 06:02:42;;;;;;;13.00;3.42;;;9.30;99.90;;;;;;5015931;28;20069;-81
2022/04/07 06:05:09;;;;;;;15.68;3.63;;;9.20;99.90;;;;;;5032311;28;20080;-81
2022/04/07 06:07:36;;;;;;;10.57;2.97;;;9.30;99.90;;;;;;5032768;28;20045;-81
2022/04/07 06:10:03;;;;;;;11.98;3.80;;;9.30;99.90;;;;;;5032745;28;20494;-81
2022/04/07 06:12:28;;;;;;;12.35;2.42;;;9.20;99.90;;;;;;5032566;28;20107;-81
2022/04/07 06:14:54;;;;;;;2.50;0.60;;;9.10;99.90;;;;;;5016242;28;20549;-81
2022/04/07 06:17:19;;;;;;;3.80;0.93;;;8.20;99.90;;;;;;5016537;28;20046;-81
2022/04/07 06:19:45;;;;;;;3.65;0.73;;;7.40;99.90;;;;;;5032898;28;20033;-80
2022/04/07 06:22:12;;;;;;;2.38;0.60;;;6.80;99.90;;;;;;5032870;28;20061;-81
2022/04/07 06:24:38;;;;;;;2.17;0.90;;;6.50;99.90;;;;;;5031751;28;20045;-81
2022/04/07 06:27:04;;;;;;;2.50;0.68;;;6.30;99.90;;;;;;5032904;28;20048;-81
2022/04/07 06:29:29;;;;;;;2.28;0.55;;;6.30;99.90;;;;;;5032672;28;20088;-81
2022/04/07 06:31:55;;;;;;;5.53;0.68;;;6.20;99.90;;;;;;5016364;28;20069;-81
2022/04/07 06:34:20;;;;;;;2.53;0.47;;;6.20;99.90;;;;;;5033023;28;20037;-81
2022/04/07 06:36:47;;;;;;;1.17;0.40;;;6.20;99.90;;;;;;5032643;28;20037;-81
2022/04/07 06:39:13;;;;;;;2.50;0.55;;;6.20;99.90;;;;;;5032479;28;20489;-81
2022/04/07 06:41:38;;;;;;;3.38;0.90;;;6.20;99.90;;;;;;5032343;28;20065;-81
2022/04/07 06:44:04;;;;;;;2.50;0.47;;;6.20;99.90;;;;;;5032853;28;20703;-81
2022/04/07 06:46:31;;;;;;;2.08;0.70;;;6.20;99.90;;;;;;5032861;28;20103;-81
2022/04/07 06:48:56;;;;;;;2.05;0.63;;;6.20;99.90;;;;;;5032429;28;20042;-81
2022/04/07 06:51:22;;;;;;;4.22;0.82;;;6.10;99.90;;;;;;5032210;28;20099;-81
2022/04/07 06:53:47;;;;;;;3.30;0.50;;;6.10;99.90;;;;;;5013916;28;20111;-81
2022/04/07 06:56:13;;;;;;;3.40;0.75;;;6.10;99.90;;;;;;5031765;28;20095;-81
2022/04/07 06:58:39;;;;;;;3.13;0.52;;;6.10;99.90;;;;;;5031932;28;20048;-81
2022/04/07 07:01:04;;;;;;;3.83;0.95;;;6.00;99.90;;;;;;5031254;28;20041;-81
2022/04/07 07:03:30;;;;;;;3.15;0.98;;;6.00;99.90;;;;;;5031645;28;20045;-81
2022/04/07 07:05:58;;;;;;;2.83;0.55;;;5.90;99.90;;;;;;5030908;28;20044;-81
2022/04/07 07:08:24;;;;;;;3.50;0.52;;;5.90;99.90;;;;;;5012137;28;20179;-81
2022/04/07 07:10:51;;;;;;;4.18;0.68;;;5.80;99.90;;;;;;5030504;28;20044;-81
2022/04/07 07:13:22;;;;;;;1.55;0.55;;;5.80;99.90;;;;;;5031950;28;20060;-81
2022/04/07 07:15:48;;;;;;;1.08;0.35;;;5.80;99.90;;;;;;5014986;28;20048;-81
2022/04/07 07:18:14;;;;;;;1.50;0.50;;;5.80;99.90;;;;;;5031461;28;20041;-81
2022/04/07 07:20:40;;;;;;;2.28;0.47;;;5.70;99.90;;;;;;5031276;28;20044;-81
2022/04/07 07:23:07;;;;;;;0.80;0.73;;;5.60;99.90;;;;;;5031381;28;20140;-81
2022/04/07 07:25:33;;;;;;;4.25;0.65;;;5.60;99.90;;;;;;5031457;28;20057;-81
2022/04/07 07:28:01;;;;;;;2.15;0.40;;;5.60;99.90;;;;;;5031406;28;20049;-81
2022/04/07 07:30:28;;;;;;;1.55;0.40;;;5.60;99.90;;;;;;5014591;28;20045;-82
2022/04/07 07:32:54;;;;;;;3.13;0.70;;;5.60;99.90;;;;;;5014669;28;20033;-81
2022/04/07 07:35:21;;;;;;;3.80;0.68;;;5.60;99.90;;;;;;5031199;28;20073;-82
2022/04/07 07:37:52;;;;;;;4.47;0.55;;;5.60;99.90;;;;;;5030949;28;20043;-81
2022/04/07 07:40:19;;;;;;;3.00;0.65;;;5.50;99.90;;;;;;5030656;28;20037;-82
2022/04/07 07:42:44;;;;;;;5.13;0.90;;;5.50;99.90;;;;;;5014347;28;20038;-81
2022/04/07 07:45:10;;;;;;;1.10;0.57;;;5.50;99.90;;;;;;5031074;28;20120;-81
2022/04/07 07:47:36;;;;;;;2.70;0.57;;;5.50;99.90;;;;;;5031029;28;20099;-81
2022/04/07 07:50:05;;;;;;;4.07;0.90;;;5.50;99.90;;;;;;5030685;28;20044;-81
2022/04/07 07:52:31;;;;;;;4.70;0.82;;;5.50;99.90;;;;;;5030294;28;20808;-81
2022/04/07 07:54:56;;;;;;;8.05;1.17;;;5.50;99.90;;;;;;5030899;28;20063;-81
2022/04/07 07:57:22;;;;;;;5.47;0.85;;;5.50;99.90;;;;;;5014589;28;20037;-81
2022/04/07 07:59:49;;;;;;;6.60;1.02;;;5.50;99.90;;;;;;5030225;28;20057;-81
2022/04/07 08:02:14;;;;;;;3.38;0.80;;;5.40;99.90;;;;;;5014220;28;20033;-81
2022/04/07 08:04:40;;;;;;;4.15;1.15;;;5.50;99.90;;;;;;5014226;28;20554;-81
2022/04/07 08:07:05;;;;;;;4.05;0.82;;;5.50;99.90;;;;;;5030860;28;20475;-81
2022/04/07 08:09:31;;;;;;;2.05;0.60;;;5.50;99.90;;;;;;5030540;28;20041;-81
2022/04/07 08:11:56;;;;;;;6.25;1.20;;;5.60;99.90;;;;;;5030784;28;20038;-82
2022/04/07 08:14:22;;;;;;;4.68;1.17;;;5.60;99.90;;;;;;5030977;28;20400;-81
2022/04/07 08:16:48;;;;;;;6.85;0.93;;;5.70;99.90;;;;;;5030156;28;20510;-81
2022/04/07 08:19:14;;;;;;;2.28;0.80;;;5.70;99.90;;;;;;5013978;28;20123;-81
2022/04/07 08:21:39;;;;;;;4.40;0.80;;;5.80;99.90;;;;;;5029863;28;20046;-81
2022/04/07 08:24:05;;;;;;;3.22;0.88;;;5.80;99.90;;;;;;5030613;28;20426;-82
2022/04/07 08:26:31;;;;;;;2.40;0.93;;;5.90;99.90;;;;;;5030975;28;20038;-81
2022/04/07 08:28:56;;;;;;;6.40;0.77;;;5.90;99.90;;;;;;5014037;28;20705;-82
2022/04/07 08:31:23;;;;;;;5.63;1.15;;;6.00;99.90;;;;;;5013861;28;20048;-82
2022/04/07 08:33:49;;;;;;;4.70;1.00;;;6.00;99.90;;;;;;5013600;28;20045;-82
2022/04/07 08:36:14;;;;;;;4.78;0.93;;;6.00;99.90;;;;;;5030012;28;20573;-82
2022/04/07 08:38:40;;;;;;;4.63;1.25;;;6.00;99.90;;;;;;5030513;28;20034;-82
2022/04/07 08:41:11;;;;;;;1.75;0.68;;;6.00;99.90;;;;;;5029853;28;20410;-82
2022/04/07 08:43:39;;;;;;;3.65;0.75;;;6.00;99.90;;;;;;5030132;28;20495;-82
2022/04/07 08:46:08;;;;;;;2.28;0.68;;;6.10;99.90;;;;;;5029897;28;20515;-82
2022/04/07 08:48:44;;;;;;;4.85;0.80;;;6.10;99.90;;;;;;5013423;28;20044;-82
2022/04/07 08:51:11;;;;;;;2.75;0.60;;;6.20;99.90;;;;;;5029841;28;20046;-81
2022/04/07 08:53:39;;;;;;;2.83;0.63;;;6.20;99.90;;;;;;5030139;28;20041;-82
2022/04/07 08:56:06;;;;;;;3.50;0.70;;;6.30;99.90;;;;;;5030282;28;20407;-82
2022/04/07 08:58:32;;;;;;;2.70;0.68;;;6.20;99.90;;;;;;5013832;28;20119;-82
2022/04/07 09:00:59;;;;;;;4.38;0.80;;;6.30;99.90;;;;;;5013394;28;20045;-84
2022/04/07 09:03:25;;;;;;;2.95;0.70;;;6.50;99.90;;;;;;5030180;28;20388;-82
2022/04/07 09:06:02;;;;;;;4.30;0.95;;;6.70;99.90;;;;;;5027726;28;20041;-82
2022/04/07 09:08:37;;;;;;;4.20;0.70;;;6.90;99.90;;;;;;5029735;28;20515;-82
2022/04/07 09:11:05;;;;;;;7.20;1.08;;;7.10;99.90;;;;;;5029428;28;20526;-82
2022/04/07 09:13:35;;;;;;;5.03;1.00;;;7.30;99.90;;;;;;5013229;28;20057;-82
2022/04/07 09:16:07;;;;;;;5.15;0.77;;;7.50;99.90;;;;;;5029999;28;20179;-83
2022/04/07 09:18:37;;;;;;;4.18;1.00;;;7.70;99.90;;;;;;5030141;28;20038;-82
2022/04/07 09:21:04;;;;;;;5.15;1.13;;;7.80;99.90;;;;;;5029593;28;20041;-82
2022/04/07 09:23:37;;;;;;;3.67;1.02;;;7.90;99.90;;;;;;5030084;28;20073;-82
2022/04/07 09:26:03;;;;;;;5.25;1.00;;;8.20;99.90;;;;;;5029839;28;20068;-83
2022/04/07 09:28:30;;;;;;;5.25;1.10;;;8.30;99.90;;;;;;5029808;28;20049;-82
2022/04/07 09:30:59;;;;;;;5.13;1.25;;;8.40;99.90;;;;;;5012868;28;20037;-82
2022/04/07 09:33:26;;;;;;;5.43;1.05;;;8.60;99.90;;;;;;5029656;28;20565;-82
2022/04/07 09:36:21;;;;;;;5.57;1.10;;;8.70;99.90;;;;;;5029752;28;20038;-82
2022/04/07 09:38:54;;;;;;;4.43;1.00;;;8.80;99.90;;;;;;5028065;28;20590;-83
2022/04/07 09:41:21;;;;;;;6.85;1.25;;;8.90;99.90;;;;;;5029632;28;20125;-82
2022/04/07 09:44:04;;;;;;;7.85;1.20;;;9.10;99.90;;;;;;5029867;28;20037;-83
2022/04/07 09:46:38;;;;;;;5.80;1.33;;;9.30;99.90;;;;;;5029786;28;20048;-83
2022/04/07 09:49:09;;;;;;;6.10;1.30;;;9.40;99.90;;;;;;5029362;28;20041;-83
2022/04/07 09:51:45;;;;;;;8.93;2.20;;;9.40;99.90;;;;;;5028860;28;20053;-83
2022/04/07 09:54:12;;;;;;;6.57;1.52;;;9.50;99.90;;;;;;5029763;28;20316;-83
2022/04/07 09:56:38;;;;;;;6.90;1.02;;;9.60;99.90;;;;;;5029540;28;20176;-82
2022/04/07 09:59:06;;;;;;;8.90;2.00;;;9.60;99.90;;;;;;5030402;28;20044;-83
2022/04/07 10:01:38;;;;;;;9.95;1.65;;;9.70;99.90;;;;;;5032481;28;20502;-83
2022/04/07 10:04:04;;;;;;;8.67;1.40;;;9.80;99.90;;;;;;5016792;28;20045;-83
2022/04/07 10:06:33;;;;;;;8.75;1.88;;;9.90;99.90;;;;;;5016437;28;20064;-83
2022/04/07 10:09:01;;;;;;;9.65;1.70;;;10.00;99.90;;;;;;5016772;28;20049;-83
2022/04/07 10:11:30;;;;;;;9.48;1.75;;;9.90;99.90;;;;;;5032662;28;20052;-83
2022/04/07 10:13:56;;;;;;;9.80;1.85;;;9.90;99.90;;;;;;5032808;28;20049;-83
2022/04/07 10:16:22;;;;;;;12.57;1.92;;;9.90;99.90;;;;;;5032794;28;20069;-82
2022/04/07 10:19:01;;;;;;;10.52;1.88;;;9.90;99.90;;;;;;5034346;28;20038;-83
2022/04/07 10:21:45;;;;;;;8.00;1.35;;;9.90;99.90;;;;;;5032657;28;20047;-83
2022/04/07 10:24:30;;;;;;;10.38;1.33;;;9.90;99.90;;;;;;5032994;28;20052;-82
2022/04/07 10:26:57;;;;;;;8.13;1.30;;;9.80;99.90;;;;;;5032864;28;20084;-83
2022/04/07 10:29:23;;;;;;;6.72;1.63;;;9.80;99.90;;;;;;5032653;28;20045;-83
2022/04/07 10:32:11;;;;;;;8.40;1.70;;;9.80;99.90;;;;;;5015424;28;20044;-83
2022/04/07 10:34:42;;;;;;;9.23;1.90;;;9.80;99.90;;;;;;5032448;28;20515;-83
2022/04/07 10:37:09;;;;;;;9.05;2.15;;;9.70;99.90;;;;;;5032447;28;20046;-83
2022/04/07 10:39:35;;;;;;;8.50;2.03;;;9.70;99.90;;;;;;5032595;28;20038;-83
2022/04/07 10:42:01;;;;;;;12.32;1.95;;;9.60;99.90;;;;;;5015802;28;20033;-83
2022/04/07 10:44:27;;;;;;;9.70;2.20;;;9.60;99.90;;;;;;5032872;28;20037;-83
2022/04/07 10:47:04;;;;;;;12.18;2.17;;;9.60;99.90;;;;;;5032504;28;20403;-82
2022/04/07 10:49:32;;;;;;;11.02;2.17;;;9.80;99.90;;;;;;5031988;28;20045;-83
2022/04/07 10:51:59;;;;;;;12.95;1.80;;;10.10;99.90;;;;;;5031751;28;20041;-83
2022/04/07 10:54:28;;;;;;;13.63;2.50;;;10.20;99.90;;;;;;5032140;28;20052;-83
2022/04/07 10:56:56;;;;;;;12.43;2.05;;;10.50;99.90;;;;;;5032295;28;20046;-83
2022/04/07 10:59:32;;;;;;;11.20;2.10;;;10.60;99.90;;;;;;5032217;28;20044;-83
2022/04/07 11:02:10;;;;;;;10.52;1.95;;;10.60;99.90;;;;;;5031669;28;20041;-83
2022/04/07 11:04:38;;;;;;;12.90;1.75;;;10.60;99.90;;;;;;5032155;28;20554;-83
2022/04/07 11:07:16;;;;;;;9.35;1.75;;;10.60;99.90;;;;;;5015699;28;20045;-83
2022/04/07 11:09:44;;;;;;;11.95;2.00;;;10.60;99.90;;;;;;5030783;28;20041;-83
2022/04/07 11:12:11;;;;;;;10.95;2.00;;;10.70;99.90;;;;;;5014886;28;20044;-83
2022/04/07 11:14:37;;;;;;;9.50;1.67;;;10.60;99.90;;;;;;5015242;28;20099;-82
2022/04/07 11:17:08;;;;;;;13.95;2.47;;;10.60;99.90;;;;;;5030738;28;20038;-83
2022/04/07 11:19:58;;;;;;;13.77;2.60;;;10.50;99.90;;;;;;5030044;28;20446;-82
2022/04/07 11:22:54;;;;;;;9.60;2.20;;;10.50;99.90;;;;;;5031650;28;20042;-83
2022/04/07 11:25:33;;;;;;;10.63;1.52;;;10.40;99.90;;;;;;5031993;28;20057;-83
2022/04/07 11:28:11;;;;;;;9.88;2.20;;;10.00;99.90;;;;;;5031954;28;20454;-82
2022/04/07 11:30:39;;;;;;;12.95;2.40;;;9.80;99.90;;;;;;5014108;28;20041;-82
2022/04/07 11:33:14;;;;;;;11.70;2.05;;;9.70;99.90;;;;;;5030844;28;20128;-82
2022/04/07 11:35:40;;;;;;;11.48;2.45;;;9.60;99.90;;;;;;5031074;28;20064;-82
2022/04/07 11:38:05;;;;;;;9.18;1.90;;;9.60;99.90;;;;;;5030654;28;20419;-83
2022/04/07 11:40:31;;;;;;;11.30;1.95;;;9.70;99.90;;;;;;5031080;28;20091;-83
2022/04/07 11:42:58;;;;;;;13.85;2.60;;;9.90;99.90;;;;;;5031327;28;20030;-83
2022/04/07 11:45:30;;;;;;;15.23;2.67;;;10.00;99.90;;;;;;5015204;28;20446;-82
2022/04/07 11:47:56;;;;;;;12.23;2.15;;;10.20;99.90;;;;;;5031072;28;20049;-83
2022/04/07 11:50:22;;;;;;;12.27;2.05;;;10.40;99.90;;;;;;5031029;28;20123;-82
2022/04/07 11:52:49;;;;;;;16.48;2.30;;;10.50;99.90;;;;;;5030612;28;20048;-83
2022/04/07 11:55:24;;;;;;;11.55;2.97;;;10.60;99.90;;;;;;5030966;28;20050;-82
2022/04/07 11:57:57;;;;;;;18.75;2.80;;;10.50;99.90;;;;;;5030808;28;20080;-82
2022/04/07 12:00:27;;;;;;;;;;;10.50;99.90;;;;;;5030982;28;20041;-83
2022/04/07 12:03:01;;;;;;;9.38;2.10;;;10.40;99.90;;;;;;5031069;28;20290;-82
2022/04/07 12:05:27;;;;;;;11.90;2.05;;;10.30;99.90;;;;;;5014473;28;20041;-83
2022/04/07 12:07:54;;;;;;;9.82;2.20;;;10.30;99.90;;;;;;5030940;28;20045;-82
2022/04/07 12:10:20;;;;;;;13.60;2.63;;;10.50;99.90;;;;;;5030619;28;20525;-82
2022/04/07 12:12:46;;;;;;;10.35;2.17;;;10.70;99.90;;;;;;5014102;28;20084;-82
2022/04/07 12:15:14;;;;;;;11.65;2.10;;;10.80;99.90;;;;;;5030728;28;20076;-82
2022/04/07 12:18:02;;;;;;;10.48;1.98;;;10.90;99.90;;;;;;5030465;28;20095;-82
2022/04/07 12:20:28;;;;;;;10.55;2.42;;;11.00;99.90;;;;;;5030545;28;20446;-83
2022/04/07 12:23:11;;;;;;;12.00;2.33;;;10.90;99.90;;;;;;5029752;28;20029;-82
2022/04/07 12:25:42;;;;;;;13.55;2.72;;;10.80;99.90;;;;;;5030950;28;20039;-82
2022/04/07 12:28:16;;;;;;;11.43;2.28;;;10.70;99.90;;;;;;5030650;28;20042;-82
2022/04/07 12:30:49;;;;;;;14.88;2.42;;;10.60;99.60;;;;;;5013830;28;20044;-82
2022/04/07 12:33:41;;;;;;;11.30;2.22;;;10.40;99.90;;;;;;5031460;28;20075;-83
2022/04/07 12:36:08;;;;;;;15.98;2.67;;;10.40;99.90;;;;;;5027896;28;20037;-79
2022/04/07 12:38:34;;;;;;;11.77;2.15;;;10.40;99.90;;;;;;5048767;28;20038;-82
2022/04/07 12:41:15;;;;;;;13.63;2.10;;;10.70;99.90;;;;;;5030073;28;20053;-83
2022/04/07 12:43:50;;;;;;;12.88;2.53;;;10.80;99.90;;;;;;5031794;28;20564;-83
2022/04/07 12:46:17;;;;;;;9.93;2.28;;;10.90;99.10;;;;;;5028264;28;20037;-82
2022/04/07 12:49:03;;;;;;;12.60;2.40;;;11.20;98.80;;;;;;5031748;28;20037;-83
2022/04/07 12:51:29;;;;;;;9.88;2.72;;;11.40;96.20;;;;;;5037875;28;20101;-82
2022/04/07 12:54:13;;;;;;;11.95;2.33;;;11.30;98.50;;;;;;5022167;28;20056;-83